createdAt,value
2018-06-06T00:00:38.199Z,20.70
2018-06-06T00:03:06.729Z,20.70
2018-06-06T00:05:35.296Z,20.70
2018-06-06T00:08:03.800Z,20.70
2018-06-06T00:10:32.779Z,20.50
2018-06-06T00:13:01.289Z,20.50
2018-06-06T00:15:29.973Z,20.70
2018-06-06T00:17:58.405Z,20.40
2018-06-06T00:20:27.136Z,20.40
2018-06-06T00:22:55.596Z,20.50
2018-06-06T00:25:24.305Z,20.40
2018-06-06T00:27:52.768Z,20.40
2018-06-06T00:30:21.249Z,20.30
2018-06-06T00:32:49.732Z,20.30
2018-06-06T00:35:18.323Z,20.30
2018-06-06T00:37:46.844Z,20.40
2018-06-06T00:40:15.385Z,20.20
2018-06-06T00:42:43.805Z,20.10
2018-06-06T00:45:12.478Z,20.10
2018-06-06T00:47:40.953Z,20.00
2018-06-06T00:50:09.513Z,19.90
2018-06-06T00:52:38.228Z,20.00
2018-06-06T00:55:18.080Z,19.90
2018-06-06T00:57:46.582Z,19.90
2018-06-06T01:00:15.039Z,19.90
2018-06-06T01:02:43.515Z,19.80
2018-06-06T01:05:11.991Z,20.00
2018-06-06T01:07:40.496Z,19.90
2018-06-06T01:10:09.081Z,19.90
2018-06-06T01:12:37.736Z,19.80
2018-06-06T01:15:06.317Z,19.80
2018-06-06T01:17:34.856Z,19.80
2018-06-06T01:20:03.433Z,19.70
2018-06-06T01:22:32.010Z,19.60
2018-06-06T01:25:00.507Z,19.60
2018-06-06T01:27:29.190Z,19.50
2018-06-06T01:29:57.624Z,19.60
2018-06-06T01:32:26.240Z,19.60
2018-06-06T01:34:54.781Z,19.60
2018-06-06T01:37:23.413Z,19.60
2018-06-06T01:39:51.876Z,19.50
2018-06-06T01:42:20.541Z,19.50
2018-06-06T01:44:49.133Z,19.40
2018-06-06T01:49:45.942Z,19.30
2018-06-06T01:52:14.506Z,19.50
2018-06-06T01:54:42.971Z,19.50
2018-06-06T01:57:11.603Z,19.40
2018-06-06T01:59:40.148Z,19.30
2018-06-06T02:02:08.768Z,19.30
2018-06-06T02:04:37.314Z,19.30
2018-06-06T02:07:05.830Z,19.40
2018-06-06T02:09:34.277Z,19.30
2018-06-06T02:12:02.692Z,19.20
2018-06-06T02:14:31.192Z,19.20
2018-06-06T02:16:59.627Z,19.10
2018-06-06T02:19:28.113Z,19.10
2018-06-06T02:21:56.673Z,19.10
2018-06-06T02:24:25.116Z,19.00
2018-06-06T02:26:53.780Z,18.90
2018-06-06T02:29:22.243Z,18.90
2018-06-06T02:31:50.952Z,18.90
2018-06-06T02:34:19.413Z,18.80
2018-06-06T02:36:48.141Z,18.90
2018-06-06T02:39:16.582Z,18.80
2018-06-06T02:41:45.202Z,18.80
2018-06-06T02:44:13.810Z,18.80
2018-06-06T02:46:42.367Z,18.80
2018-06-06T02:49:10.870Z,18.80
2018-06-06T02:51:41.563Z,18.70
2018-06-06T02:54:10.147Z,18.80
2018-06-06T02:56:38.696Z,18.90
2018-06-06T02:59:07.201Z,19.00
2018-06-06T03:01:35.729Z,18.80
2018-06-06T03:04:04.322Z,18.70
2018-06-06T03:06:32.741Z,18.50
2018-06-06T03:09:01.209Z,18.70
2018-06-06T03:11:29.628Z,18.70
2018-06-06T03:13:58.087Z,18.60
2018-06-06T03:16:26.596Z,18.60
2018-06-06T03:18:55.061Z,18.50
2018-06-06T03:21:23.533Z,18.40
2018-06-06T03:23:51.974Z,18.50
2018-06-06T03:26:20.448Z,18.50
2018-06-06T03:28:48.979Z,18.40
2018-06-06T03:31:17.439Z,18.30
2018-06-06T03:33:45.927Z,18.40
2018-06-06T03:36:14.621Z,18.30
2018-06-06T03:41:11.408Z,18.30
2018-06-06T03:43:39.972Z,18.30
2018-06-06T03:46:08.588Z,18.30
2018-06-06T03:48:37.175Z,18.30
2018-06-06T03:51:06.037Z,18.20
2018-06-06T03:53:34.563Z,18.20
2018-06-06T03:56:03.204Z,18.30
2018-06-06T03:58:31.740Z,18.30
2018-06-06T04:01:00.340Z,18.30
2018-06-06T04:03:28.804Z,18.30
2018-06-06T04:05:57.310Z,18.30
2018-06-06T04:08:25.941Z,18.30
2018-06-06T04:10:54.480Z,18.20
2018-06-06T04:13:23.174Z,18.20
2018-06-06T04:15:51.759Z,18.20
2018-06-06T04:18:20.236Z,18.30
2018-06-06T04:20:48.857Z,18.40
2018-06-06T04:23:17.383Z,18.40
2018-06-06T04:25:45.939Z,18.40
2018-06-06T04:28:14.432Z,18.50
2018-06-06T04:30:43.148Z,18.40
2018-06-06T04:33:11.630Z,18.30
2018-06-06T04:35:40.228Z,18.30
2018-06-06T04:38:08.716Z,18.30
2018-06-06T04:40:37.143Z,18.30
2018-06-06T04:43:05.612Z,18.30
2018-06-06T04:45:34.127Z,18.20
2018-06-06T04:48:02.579Z,18.20
2018-06-06T04:50:31.032Z,18.20
2018-06-06T04:52:59.518Z,18.50
2018-06-06T04:55:28.046Z,18.70
2018-06-06T04:57:56.503Z,18.50
2018-06-06T05:00:25.009Z,18.50
2018-06-06T05:02:53.502Z,18.50
2018-06-06T05:05:22.128Z,18.50
2018-06-06T05:10:18.903Z,18.70
2018-06-06T05:12:47.356Z,18.90
2018-06-06T05:15:15.819Z,18.90
2018-06-06T05:17:44.322Z,18.80
2018-06-06T05:20:12.775Z,18.80
2018-06-06T05:22:41.322Z,18.80
2018-06-06T05:25:10.114Z,18.70
2018-06-06T05:27:38.537Z,18.80
2018-06-06T05:30:07.009Z,19.00
2018-06-06T05:32:35.520Z,19.00
2018-06-06T05:35:03.908Z,19.00
2018-06-06T05:37:32.392Z,19.00
2018-06-06T05:40:01.841Z,19.10
2018-06-06T05:42:30.335Z,19.20
2018-06-06T05:44:58.766Z,19.20
2018-06-06T05:47:27.217Z,19.10
2018-06-06T05:49:55.837Z,19.30
2018-06-06T05:52:24.315Z,19.30
2018-06-06T05:54:52.742Z,19.30
2018-06-06T05:57:21.329Z,19.40
2018-06-06T05:59:49.770Z,19.30
2018-06-06T06:02:18.361Z,19.30
2018-06-06T06:04:46.783Z,19.50
2018-06-06T06:07:15.289Z,19.60
2018-06-06T06:09:43.812Z,19.70
2018-06-06T06:12:12.277Z,19.60
2018-06-06T06:14:40.919Z,19.60
2018-06-06T06:17:09.377Z,19.60
2018-06-06T06:19:38.171Z,19.80
2018-06-06T06:22:06.621Z,19.90
2018-06-06T06:24:35.233Z,19.90
2018-06-06T06:27:03.808Z,19.90
2018-06-06T06:29:32.335Z,20.10
2018-06-06T06:32:00.805Z,20.20
2018-06-06T06:34:29.277Z,20.30
2018-06-06T06:36:57.755Z,20.30
2018-06-06T06:39:26.344Z,20.30
2018-06-06T06:41:54.799Z,20.40
2018-06-06T06:44:23.407Z,20.50
2018-06-06T06:46:51.890Z,20.40
2018-06-06T06:49:20.480Z,20.40
2018-06-06T06:51:49.113Z,20.90
2018-06-06T06:54:17.632Z,20.90
2018-06-06T06:56:46.154Z,20.70
2018-06-06T06:59:14.694Z,20.80
2018-06-06T07:01:43.209Z,21.00
2018-06-06T07:04:11.819Z,21.20
2018-06-06T07:06:40.289Z,21.20
2018-06-06T07:09:09.189Z,21.40
2018-06-06T07:11:37.708Z,21.70
2018-06-06T07:14:06.223Z,21.90
2018-06-06T07:16:34.737Z,22.10
2018-06-06T07:19:03.461Z,22.20
2018-06-06T07:21:31.944Z,22.90
2018-06-06T07:24:00.404Z,23.80
2018-06-06T07:26:28.868Z,23.60
2018-06-06T07:28:57.349Z,24.40
2018-06-06T07:31:25.853Z,24.80
2018-06-06T07:33:54.317Z,26.00
2018-06-06T07:36:22.988Z,25.90
2018-06-06T07:38:51.578Z,26.70
2018-06-06T07:41:20.108Z,26.00
2018-06-06T07:43:48.717Z,25.50
2018-06-06T07:46:17.345Z,25.70
2018-06-06T07:48:46.153Z,24.80
2018-06-06T07:51:14.850Z,24.50
2018-06-06T07:53:43.318Z,25.50
2018-06-06T07:56:11.890Z,25.00
2018-06-06T07:58:40.358Z,25.20
2018-06-06T08:01:09.013Z,26.30
2018-06-06T08:03:37.632Z,26.00
2018-06-06T08:06:06.119Z,25.90
2018-06-06T08:08:34.700Z,27.00
2018-06-06T08:11:03.204Z,28.40
2018-06-06T08:13:31.850Z,27.10
2018-06-06T08:16:00.292Z,26.40
2018-06-06T08:18:28.809Z,25.60
2018-06-06T08:20:57.532Z,25.40
2018-06-06T08:23:25.973Z,27.70
2018-06-06T08:25:54.456Z,27.40
2018-06-06T08:28:22.977Z,26.70
2018-06-06T08:30:51.518Z,27.80
2018-06-06T08:33:20.065Z,27.80
2018-06-06T08:35:48.640Z,27.20
2018-06-06T08:38:17.366Z,29.10
2018-06-06T08:40:45.816Z,28.10
2018-06-06T08:43:14.269Z,27.80
2018-06-06T08:45:42.810Z,27.40
2018-06-06T08:48:11.445Z,27.20
2018-06-06T08:50:39.873Z,27.20
2018-06-06T08:53:08.401Z,28.10
2018-06-06T08:55:36.952Z,28.40
2018-06-06T08:58:05.424Z,27.90
2018-06-06T09:00:33.989Z,29.40
2018-06-06T09:03:02.517Z,28.50
2018-06-06T09:05:31.154Z,28.00
2018-06-06T09:07:59.735Z,28.00
2018-06-06T09:10:28.216Z,28.30
2018-06-06T09:12:56.725Z,30.30
2018-06-06T09:15:25.221Z,31.80
2018-06-06T09:17:53.937Z,29.70
2018-06-06T09:20:22.476Z,29.10
2018-06-06T09:22:50.952Z,28.10
2018-06-06T09:25:19.565Z,27.70
2018-06-06T09:27:48.089Z,28.30
2018-06-06T09:30:16.736Z,28.20
2018-06-06T09:32:45.291Z,28.30
2018-06-06T09:35:13.784Z,29.00
2018-06-06T09:37:42.312Z,30.10
2018-06-06T09:40:10.973Z,30.60
2018-06-06T09:42:39.516Z,29.30
2018-06-06T09:45:08.124Z,28.50
2018-06-06T09:47:36.679Z,28.60
2018-06-06T09:50:05.400Z,28.30
2018-06-06T09:52:33.864Z,29.30
2018-06-06T09:55:02.350Z,29.60
2018-06-06T09:59:59.243Z,28.90
2018-06-06T10:02:27.786Z,27.90
2018-06-06T10:04:56.305Z,28.60
2018-06-06T10:07:24.829Z,30.10
2018-06-06T10:09:53.367Z,30.70
2018-06-06T10:12:21.995Z,29.90
2018-06-06T10:14:50.630Z,28.60
2018-06-06T10:17:19.100Z,30.10
2018-06-06T10:19:47.620Z,31.40
2018-06-06T10:22:16.321Z,31.40
2018-06-06T10:24:44.820Z,29.40
2018-06-06T10:27:13.288Z,29.80
2018-06-06T10:29:42.061Z,30.90
2018-06-06T10:32:10.577Z,30.40
2018-06-06T10:34:39.123Z,31.80
2018-06-06T10:37:07.598Z,30.60
2018-06-06T10:39:36.353Z,30.30
2018-06-06T10:42:05.075Z,29.90
2018-06-06T10:44:33.816Z,29.50
2018-06-06T10:47:02.349Z,31.00
2018-06-06T10:49:30.953Z,32.60
2018-06-06T10:51:59.418Z,31.90
2018-06-06T10:54:27.921Z,30.90
2018-06-06T10:56:56.608Z,31.20
2018-06-06T10:59:25.077Z,30.40
2018-06-06T11:01:53.702Z,29.60
2018-06-06T11:04:22.201Z,29.20
2018-06-06T11:06:51.028Z,29.50
2018-06-06T11:09:19.531Z,29.40
2018-06-06T11:11:48.106Z,31.80
2018-06-06T11:14:16.550Z,31.30
2018-06-06T11:16:45.119Z,31.80
2018-06-06T11:19:13.557Z,31.30
2018-06-06T11:21:42.225Z,30.60
2018-06-06T11:24:10.833Z,31.00
2018-06-06T11:26:39.552Z,30.10
2018-06-06T11:29:08.064Z,30.80
2018-06-06T11:34:05.687Z,30.70
2018-06-06T11:36:34.241Z,30.00
2018-06-06T11:39:02.713Z,30.20
2018-06-06T11:41:31.213Z,29.90
2018-06-06T11:43:59.757Z,29.90
2018-06-06T11:46:28.276Z,30.10
2018-06-06T11:48:56.729Z,30.20
2018-06-06T11:51:25.199Z,30.40
2018-06-06T11:53:53.651Z,29.20
2018-06-06T11:56:22.225Z,29.40
2018-06-06T11:58:50.740Z,29.80
2018-06-06T12:01:19.362Z,29.00
2018-06-06T12:03:48.052Z,29.20
2018-06-06T12:06:16.676Z,29.10
2018-06-06T12:08:45.242Z,29.10
2018-06-06T12:11:13.892Z,29.50
2018-06-06T12:13:42.474Z,30.60
2018-06-06T12:16:11.018Z,30.40
2018-06-06T12:18:39.471Z,31.00
2018-06-06T12:21:08.100Z,31.00
2018-06-06T12:23:36.584Z,31.20
2018-06-06T12:26:05.185Z,31.00
2018-06-06T12:28:34.057Z,30.30
2018-06-06T12:31:02.523Z,30.00
2018-06-06T12:33:30.978Z,29.60
2018-06-06T12:35:59.610Z,31.10
2018-06-06T12:38:28.058Z,31.40
2018-06-06T12:40:56.589Z,31.30
2018-06-06T12:43:25.254Z,30.70
2018-06-06T12:45:53.735Z,30.40
2018-06-06T12:48:22.288Z,30.20
2018-06-06T12:50:51.001Z,30.20
2018-06-06T12:53:24.161Z,30.10
2018-06-06T12:55:52.907Z,30.20
2018-06-06T12:58:21.894Z,29.60
2018-06-06T13:00:50.479Z,30.10
2018-06-06T13:03:19.060Z,30.70
2018-06-06T13:05:47.493Z,30.40
2018-06-06T13:08:15.944Z,29.30
2018-06-06T13:10:44.348Z,29.10
2018-06-06T13:13:12.793Z,29.10
2018-06-06T13:15:41.238Z,29.20
2018-06-06T13:18:09.711Z,29.10
2018-06-06T13:20:38.394Z,28.70
2018-06-06T13:23:06.837Z,28.90
2018-06-06T13:25:35.485Z,28.70
2018-06-06T13:28:04.002Z,29.00
2018-06-06T13:30:32.614Z,28.80
2018-06-06T13:33:01.064Z,29.20
2018-06-06T13:35:29.609Z,29.60
2018-06-06T13:37:58.370Z,29.50
2018-06-06T13:40:26.820Z,29.70
2018-06-06T13:42:55.433Z,29.70
2018-06-06T13:45:24.006Z,29.70
2018-06-06T13:47:52.538Z,29.90
2018-06-06T13:50:21.066Z,30.60
2018-06-06T13:52:49.613Z,29.80
2018-06-06T13:55:18.151Z,29.50
2018-06-06T13:57:46.897Z,29.30
2018-06-06T14:00:15.533Z,29.90
2018-06-06T14:02:44.149Z,29.60
2018-06-06T14:05:12.938Z,29.70
2018-06-06T14:07:41.452Z,29.70
2018-06-06T14:10:10.032Z,29.00
2018-06-06T14:12:38.523Z,29.20
2018-06-06T14:15:07.025Z,29.40
2018-06-06T14:17:35.500Z,29.70
2018-06-06T14:20:03.981Z,29.40
2018-06-06T14:22:32.472Z,29.20
2018-06-06T14:25:00.956Z,28.70
2018-06-06T14:27:29.514Z,28.90
2018-06-06T14:29:58.073Z,29.60
2018-06-06T14:32:26.859Z,29.60
2018-06-06T14:34:55.290Z,29.20
2018-06-06T14:37:23.940Z,28.80
2018-06-06T14:39:52.390Z,29.00
2018-06-06T14:42:21.073Z,29.00
2018-06-06T14:44:49.638Z,29.00
2018-06-06T14:47:18.148Z,29.20
2018-06-06T14:49:46.659Z,29.20
2018-06-06T14:52:15.153Z,29.40
2018-06-06T14:54:43.862Z,29.50
2018-06-06T14:59:40.931Z,29.10
2018-06-06T15:07:06.143Z,29.00
2018-06-06T15:09:34.649Z,28.80
2018-06-06T15:12:03.136Z,28.80
2018-06-06T15:14:31.630Z,29.00
2018-06-06T15:17:00.119Z,29.30
2018-06-06T15:19:28.713Z,29.10
2018-06-06T15:21:57.274Z,28.90
2018-06-06T15:24:25.773Z,28.90
2018-06-06T15:26:54.240Z,28.90
2018-06-06T15:29:22.834Z,29.10
2018-06-06T15:31:51.506Z,29.20
2018-06-06T15:34:19.982Z,28.90
2018-06-06T15:36:48.485Z,28.90
2018-06-06T15:39:17.144Z,29.00
2018-06-06T15:41:45.681Z,29.40
2018-06-06T15:44:14.117Z,29.60
2018-06-06T15:46:42.868Z,29.00
2018-06-06T15:49:11.320Z,28.70
2018-06-06T15:51:39.921Z,28.70
2018-06-06T15:54:08.439Z,28.70
2018-06-06T15:56:37.080Z,28.70
2018-06-06T15:59:05.521Z,28.70
2018-06-06T16:01:34.004Z,28.70
2018-06-06T16:04:02.696Z,28.70
2018-06-06T16:06:31.189Z,28.80
2018-06-06T16:08:59.854Z,28.70
2018-06-06T16:11:28.333Z,28.60
2018-06-06T16:13:56.980Z,28.60
2018-06-06T16:16:25.446Z,28.60
2018-06-06T16:18:53.947Z,28.40
2018-06-06T16:21:22.531Z,28.40
2018-06-06T16:23:51.041Z,28.40
2018-06-06T16:26:19.665Z,28.40
2018-06-06T16:28:48.160Z,28.40
2018-06-06T16:31:16.614Z,28.50
2018-06-06T16:36:13.372Z,28.40
2018-06-06T16:38:42.081Z,28.50
2018-06-06T16:41:10.710Z,28.50
2018-06-06T16:43:39.212Z,28.50
2018-06-06T16:46:07.739Z,28.40
2018-06-06T16:48:36.318Z,28.30
2018-06-06T16:51:04.856Z,28.20
2018-06-06T16:53:33.347Z,28.20
2018-06-06T16:56:01.897Z,28.20
2018-06-06T16:58:30.524Z,28.30
2018-06-06T17:00:59.024Z,28.30
2018-06-06T17:03:27.528Z,28.20
2018-06-06T17:05:56.001Z,28.30
2018-06-06T17:08:24.453Z,28.50
2018-06-06T17:10:53.112Z,28.40
2018-06-06T17:13:21.673Z,28.30
2018-06-06T17:15:50.209Z,28.20
2018-06-06T17:18:18.742Z,28.20
2018-06-06T17:20:47.440Z,27.90
2018-06-06T17:23:15.892Z,27.80
2018-06-06T17:25:44.353Z,27.80
2018-06-06T17:28:13.939Z,27.70
2018-06-06T17:30:42.553Z,27.50
2018-06-06T17:33:11.144Z,27.70
2018-06-06T17:35:39.684Z,27.50
2018-06-06T17:38:08.301Z,27.50
2018-06-06T17:40:36.920Z,27.40
2018-06-06T17:45:33.750Z,27.30
2018-06-06T17:48:02.237Z,27.30
2018-06-06T17:50:31.021Z,27.40
2018-06-06T17:52:59.634Z,27.30
2018-06-06T17:55:28.101Z,27.20
2018-06-06T17:57:56.907Z,27.10
2018-06-06T18:00:25.406Z,27.10
2018-06-06T18:02:53.957Z,27.10
2018-06-06T18:07:50.825Z,26.90
2018-06-06T18:10:19.252Z,26.80
2018-06-06T18:12:48.448Z,26.80
2018-06-06T18:15:16.932Z,26.80
2018-06-06T18:17:45.674Z,26.80
2018-06-06T18:20:14.134Z,26.70
2018-06-06T18:22:42.738Z,26.70
2018-06-06T18:25:11.572Z,26.80
2018-06-06T18:27:40.229Z,26.70
2018-06-06T18:30:08.766Z,26.70
2018-06-06T18:32:37.320Z,26.60
2018-06-06T18:35:05.867Z,26.70
2018-06-06T18:37:34.341Z,26.60
2018-06-06T18:40:02.823Z,26.60
2018-06-06T18:42:31.335Z,26.60
2018-06-06T18:44:59.821Z,26.50
2018-06-06T18:47:28.465Z,26.50
2018-06-06T18:49:57.051Z,26.40
2018-06-06T18:52:25.610Z,26.40
2018-06-06T18:54:54.111Z,26.30
2018-06-06T18:57:22.581Z,26.30
2018-06-06T18:59:51.176Z,26.20
2018-06-06T19:02:19.694Z,26.10
2018-06-06T19:04:48.163Z,26.00
2018-06-06T19:07:16.851Z,26.00
2018-06-06T19:09:45.357Z,25.90
2018-06-06T19:12:13.857Z,25.90
2018-06-06T19:14:42.432Z,26.00
2018-06-06T19:17:10.939Z,26.10
2018-06-06T19:19:39.520Z,26.10
2018-06-06T19:22:08.114Z,26.00
2018-06-06T19:24:36.672Z,26.00
2018-06-06T19:27:05.537Z,26.10
2018-06-06T19:32:02.433Z,25.80
2018-06-06T19:34:31.073Z,25.70
2018-06-06T19:36:59.584Z,25.70
2018-06-06T19:39:28.139Z,25.80
2018-06-06T19:41:57.091Z,26.10
2018-06-06T19:44:25.622Z,26.10
2018-06-06T19:46:54.273Z,25.70
2018-06-06T19:49:22.877Z,25.40
2018-06-06T19:51:51.321Z,25.20
2018-06-06T19:54:20.081Z,25.20
2018-06-06T19:56:48.560Z,24.80
2018-06-06T19:59:17.092Z,24.60
2018-06-06T20:01:45.709Z,24.60
2018-06-06T20:04:14.308Z,24.50
2018-06-06T20:06:42.753Z,24.40
2018-06-06T20:09:11.302Z,24.30
2018-06-06T20:11:39.833Z,24.20
2018-06-06T20:14:08.350Z,24.20
2018-06-06T20:16:36.964Z,24.20
2018-06-06T20:19:05.674Z,24.30
2018-06-06T20:21:34.280Z,24.40
2018-06-06T20:24:02.870Z,24.30
2018-06-06T20:26:31.296Z,24.10
2018-06-06T20:28:59.821Z,24.20
2018-06-06T20:31:28.387Z,24.10
2018-06-06T20:33:56.993Z,24.00
2018-06-06T20:36:25.568Z,23.90
2018-06-06T20:38:54.185Z,23.80
2018-06-06T20:41:22.665Z,23.70
2018-06-06T20:43:51.369Z,23.50
2018-06-06T20:46:19.904Z,23.50
2018-06-06T20:48:48.509Z,23.40
2018-06-06T20:51:17.101Z,23.20
2018-06-06T20:53:45.850Z,23.10
2018-06-06T20:56:14.501Z,23.10
2018-06-06T20:58:43.121Z,23.00
2018-06-06T21:01:11.696Z,22.90
2018-06-06T21:03:40.119Z,22.80
2018-06-06T21:06:08.862Z,22.80
2018-06-06T21:08:37.292Z,22.70
2018-06-06T21:11:05.946Z,22.70
2018-06-06T21:13:34.368Z,22.70
2018-06-06T21:18:31.215Z,22.80
2018-06-06T21:20:59.756Z,22.80
2018-06-06T21:23:28.389Z,22.70
2018-06-06T21:25:56.982Z,22.80
2018-06-06T21:28:25.483Z,22.80
2018-06-06T21:30:53.903Z,22.70
2018-06-06T21:33:22.415Z,22.80
2018-06-06T21:35:50.967Z,22.60
2018-06-06T21:38:19.506Z,22.70
2018-06-06T21:40:47.956Z,22.80
2018-06-06T21:43:16.494Z,22.80
2018-06-06T21:45:44.980Z,22.80
2018-06-06T21:48:13.580Z,22.70
2018-06-06T21:50:42.034Z,22.80
2018-06-06T21:53:10.517Z,22.80
2018-06-06T21:55:39.096Z,22.70
2018-06-06T21:58:07.700Z,22.60
2018-06-06T22:00:36.236Z,22.60
2018-06-06T22:03:04.796Z,22.40
2018-06-06T22:05:33.345Z,22.20
2018-06-06T22:08:01.978Z,22.20
2018-06-06T22:10:30.477Z,22.20
2018-06-06T22:12:58.954Z,22.20
2018-06-06T22:15:27.521Z,22.30
2018-06-06T22:17:56.061Z,22.50
2018-06-06T22:20:24.511Z,22.50
2018-06-06T22:22:53.008Z,22.40
2018-06-06T22:25:21.576Z,22.10
2018-06-06T22:27:50.189Z,21.90
2018-06-06T22:30:18.637Z,21.80
2018-06-06T22:32:47.127Z,21.60
2018-06-06T22:35:18.679Z,21.50
2018-06-06T22:37:47.269Z,21.60
2018-06-06T22:40:15.847Z,21.60
2018-06-06T22:42:44.410Z,21.40
2018-06-06T22:45:13.040Z,21.30
2018-06-06T22:47:41.601Z,21.30
2018-06-06T22:50:10.164Z,21.30
2018-06-06T22:52:38.721Z,21.30
2018-06-06T22:55:07.497Z,21.40
2018-06-06T22:57:36.149Z,21.30
2018-06-06T23:00:05.397Z,21.20
2018-06-06T23:02:33.901Z,21.20
2018-06-06T23:05:02.644Z,21.10
2018-06-06T23:07:31.113Z,21.00
2018-06-06T23:09:59.613Z,21.10
2018-06-06T23:12:28.145Z,21.10
2018-06-06T23:14:56.570Z,21.00
2018-06-06T23:17:25.017Z,21.00
2018-06-06T23:19:53.650Z,21.10
2018-06-06T23:22:22.237Z,21.30
2018-06-06T23:24:50.721Z,21.30
2018-06-06T23:27:19.164Z,21.10
2018-06-06T23:29:47.745Z,20.90
2018-06-06T23:32:16.160Z,20.70
2018-06-06T23:34:44.812Z,20.90
2018-06-06T23:37:13.275Z,21.00
2018-06-06T23:39:41.941Z,21.10
2018-06-06T23:42:10.368Z,21.00
2018-06-06T23:44:39.087Z,21.10
2018-06-06T23:47:07.519Z,21.10
2018-06-06T23:49:36.174Z,21.00
2018-06-06T23:52:04.684Z,20.70
2018-06-06T23:54:33.125Z,20.70
2018-06-06T23:57:01.570Z,20.80
2018-06-06T23:59:30.064Z,21.00
